Time;durP1;ratioP1;P1;durP2;ratioP2;P2;SDS_P1;SDS_P2;PMS_P1;PMS_P2;Temp;Humidity;BMP_temperature;BMP_pressure;BME280_temperature;BME280_humidity;BME280_pressure;Samples;Min_cycle;Max_cycle;Signal;HPM_P1;HPM_P2
2023/07/25 08:00:57;;;;;;;13.35;8.18;;;20.70;99.90;;;;;;6171280;22;20291;31
2023/07/25 08:03:25;;;;;;;10.43;5.35;;;20.80;1.00;;;;;;6196345;22;20216;31
2023/07/25 08:08:27;;;;;;;5.13;4.05;;;21.10;99.90;;;;;;6238931;22;20196;-96
2023/07/25 08:21:20;;;;;;;23.67;12.10;;;21.50;99.90;;;;;;6224940;22;20218;-96
2023/07/25 08:23:47;;;;;;;19.30;8.55;;;21.40;1.00;;;;;;6244237;23;20230;-95
2023/07/25 08:26:14;;;;;;;10.75;6.60;;;21.40;1.00;;;;;;6243087;23;20156;-96
2023/07/25 08:28:41;;;;;;;30.48;13.70;;;21.70;1.00;;;;;;6241765;22;20189;-96
2023/07/25 08:31:08;;;;;;;25.35;11.07;;;22.00;2.50;;;;;;6235914;23;20179;-96
2023/07/25 08:33:42;;;;;;;23.90;11.70;;;22.10;1.00;;;;;;6238684;23;20161;-96
2023/07/25 08:36:09;;;;;;;16.25;9.00;;;22.20;1.00;;;;;;6240854;23;20157;-96
2023/07/25 08:38:38;;;;;;;17.00;10.95;;;22.20;1.00;;;;;;6240651;23;20169;-96
2023/07/25 08:41:09;;;;;;;19.98;10.05;;;22.00;1.00;;;;;;6240167;23;20173;-96
2023/07/25 08:43:38;;;;;;;22.40;10.85;;;22.00;1.00;;;;;;6237411;23;20158;-96
2023/07/25 08:46:08;;;;;;;34.58;16.38;;;21.90;99.90;;;;;;6238716;23;20169;-96
2023/07/25 08:48:37;;;;;;;42.22;17.40;;;21.70;99.90;;;;;;6238413;23;20167;-96
2023/07/25 08:51:08;;;;;;;25.42;11.52;;;21.70;99.90;;;;;;6240820;23;20156;-96
2023/07/25 08:53:42;;;;;;;38.70;17.40;;;21.60;1.00;;;;;;6238803;23;20176;-96
2023/07/25 08:56:09;;;;;;;19.23;9.38;;;21.70;1.00;;;;;;6242204;23;20161;-96
2023/07/25 08:58:36;;;;;;;32.70;13.60;;;21.80;1.00;;;;;;6242684;23;20172;-96
2023/07/25 09:01:03;;;;;;;16.65;7.53;;;22.00;99.90;;;;;;6238921;23;20171;-95
2023/07/25 09:03:31;;;;;;;38.72;18.52;;;22.20;99.90;;;;;;6239939;23;20187;-96
2023/07/25 09:06:00;;;;;;;15.95;6.97;;;22.40;99.90;;;;;;6239827;23;20169;-96
2023/07/25 09:13:39;;;;;;;16.00;3.83;;;22.80;1.00;;;;;;6243233;22;20200;-96
2023/07/25 09:16:06;;;;;;;6.18;2.47;;;23.00;1.00;;;;;;6233247;22;20221;-96
2023/07/25 09:21:09;;;;;;;5.32;2.30;;;23.30;1.00;;;;;;6231391;22;20226;-96
2023/07/25 09:23:36;;;;;;;2.88;2.33;;;23.70;1.00;;;;;;6241842;23;20165;-96
2023/07/25 09:26:08;;;;;;;3.08;1.60;;;24.00;1.00;;;;;;6238721;23;20176;-96
2023/07/25 09:28:35;;;;;;;6.88;4.68;;;24.20;99.90;;;;;;6237118;23;20196;-96
2023/07/25 09:31:04;;;;;;;2.75;2.08;;;24.50;99.90;;;;;;6239994;22;20216;-96
2023/07/25 09:33:32;;;;;;;3.58;1.77;;;24.80;99.90;;;;;;6240981;23;20203;-96
2023/07/25 09:35:59;;;;;;;8.60;5.25;;;24.90;99.90;;;;;;6242782;22;20157;-96
2023/07/25 09:38:26;;;;;;;4.00;2.28;;;24.80;17.00;;;;;;6243083;23;20236;-96
2023/07/25 09:40:53;;;;;;;6.13;2.75;;;24.50;47.90;;;;;;6233241;22;20255;-96
2023/07/25 09:43:23;;;;;;;5.47;3.33;;;24.30;1.00;;;;;;6241148;23;20169;-96
2023/07/25 09:45:51;;;;;;;3.60;2.60;;;24.10;1.00;;;;;;6241537;23;20173;-96
2023/07/25 09:48:20;;;;;;;2.95;2.22;;;24.10;1.00;;;;;;6232340;23;20179;-96
2023/07/25 09:50:47;;;;;;;4.32;2.75;;;24.40;1.00;;;;;;6218595;23;20650;-95
2023/07/25 09:53:16;;;;;;;5.93;3.55;;;24.50;1.00;;;;;;6218517;23;20173;-96
2023/07/25 09:55:43;;;;;;;2.42;1.95;;;24.50;1.00;;;;;;6219107;23;20256;-95
2023/07/25 09:58:11;;;;;;;9.95;4.35;;;24.50;1.00;;;;;;6218829;23;20255;-95
2023/07/25 10:00:39;;;;;;;4.45;2.80;;;24.70;1.00;;;;;;6219272;23;20197;-96
2023/07/25 10:03:09;;;;;;;8.00;4.47;;;24.60;1.00;;;;;;6219214;23;20200;-96
2023/07/25 10:05:41;;;;;;;10.32;7.45;;;24.60;1.00;;;;;;6218952;23;20494;-96
2023/07/25 10:08:09;;;;;;;3.95;2.13;;;24.80;1.00;;;;;;6219099;23;20244;-95
2023/07/25 10:10:36;;;;;;;4.55;3.13;;;25.00;1.00;;;;;;6218583;23;20189;-96
2023/07/25 10:13:02;;;;;;;3.28;1.77;;;25.20;1.00;;;;;;6218951;23;20169;-96
2023/07/25 10:15:30;;;;;;;2.05;1.42;;;25.50;1.00;;;;;;6219245;23;20175;-96
2023/07/25 10:18:02;;;;;;;3.05;1.90;;;25.70;1.00;;;;;;6218502;23;20255;-96
2023/07/25 10:20:29;;;;;;;2.92;1.70;;;26.00;1.00;;;;;;6218553;23;20157;-96
2023/07/25 10:23:07;;;;;;;3.97;1.63;;;26.00;1.00;;;;;;6218491;23;20173;-94
2023/07/25 10:25:34;;;;;;;4.43;2.28;;;25.60;1.00;;;;;;6218948;23;20192;-95
2023/07/25 10:28:03;;;;;;;6.63;2.35;;;25.00;1.00;;;;;;6218418;23;20173;-96
2023/07/25 10:30:32;;;;;;;3.15;1.75;;;24.60;1.00;;;;;;6218576;23;20195;-95
2023/07/25 10:33:01;;;;;;;9.80;8.70;;;24.40;1.00;;;;;;6218393;23;20180;-96
2023/07/25 10:35:49;;;;;;;4.18;3.00;;;24.50;1.00;;;;;;6218702;23;20180;-95
2023/07/25 10:38:30;;;;;;;3.13;1.77;;;24.80;1.00;;;;;;6218787;23;20165;-96
2023/07/25 10:40:58;;;;;;;2.20;1.50;;;25.00;1.00;;;;;;6217986;23;20201;-95
2023/07/25 10:43:28;;;;;;;5.88;1.30;;;25.10;1.00;;;;;;6218190;23;20165;-95
2023/07/25 10:45:56;;;;;;;2.10;1.40;;;25.00;1.00;;;;;;6219229;23;20153;-96
2023/07/25 10:48:34;;;;;;;1.90;1.25;;;24.80;1.00;;;;;;6217669;23;20180;-96
2023/07/25 10:51:04;;;;;;;2.05;1.30;;;24.90;1.00;;;;;;6218118;23;20185;-95
2023/07/25 10:53:33;;;;;;;4.05;1.20;;;25.00;1.00;;;;;;6218348;23;20173;-96
2023/07/25 10:56:13;;;;;;;1.70;1.30;;;25.00;1.00;;;;;;6218210;23;20667;-95
2023/07/25 10:58:55;;;;;;;2.50;1.38;;;24.80;1.00;;;;;;6218247;23;20153;-96
2023/07/25 11:01:33;;;;;;;1.80;1.40;;;24.60;1.00;;;;;;6216618;23;20627;-95
2023/07/25 11:04:20;;;;;;;1.98;1.30;;;24.40;1.00;;;;;;6217419;23;20169;-95
2023/07/25 11:06:48;;;;;;;2.83;1.90;;;24.50;1.00;;;;;;6217845;23;20158;-96
2023/07/25 11:09:17;;;;;;;1.48;1.27;;;24.80;1.00;;;;;;6217793;23;20161;-96
2023/07/25 11:11:45;;;;;;;5.90;1.10;;;24.90;1.00;;;;;;6217189;23;20246;-95
2023/07/25 11:14:14;;;;;;;1.73;0.80;;;24.90;1.00;;;;;;6217271;23;20200;-95
2023/07/25 11:16:42;;;;;;;3.80;1.00;;;24.90;1.00;;;;;;6217455;23;20669;-95
2023/07/25 11:19:10;;;;;;;1.27;0.90;;;25.10;1.00;;;;;;6217359;23;20172;-96
2023/07/25 11:21:40;;;;;;;4.03;0.88;;;25.40;1.00;;;;;;6217483;23;20639;-95
2023/07/25 11:24:08;;;;;;;2.90;1.10;;;25.70;1.00;;;;;;6217767;23;20660;-96
2023/07/25 11:26:37;;;;;;;3.25;0.82;;;26.10;1.00;;;;;;6217783;23;20175;-96
2023/07/25 11:29:05;;;;;;;1.50;1.02;;;26.30;1.00;;;;;;6217940;23;20173;-95
2023/07/25 11:31:32;;;;;;;2.92;1.00;;;26.40;1.00;;;;;;6218173;23;20252;-96
2023/07/25 11:34:11;;;;;;;1.65;1.00;;;26.50;1.00;;;;;;6217374;23;20255;-95
2023/07/25 11:36:39;;;;;;;3.90;1.00;;;26.60;1.00;;;;;;6218311;23;20163;-95
2023/07/25 11:39:07;;;;;;;1.60;0.80;;;26.70;1.00;;;;;;6217933;23;20173;-95
2023/07/25 11:41:34;;;;;;;2.30;1.20;;;26.80;1.00;;;;;;6216883;23;20279;-95
2023/07/25 11:44:04;;;;;;;2.00;1.20;;;26.70;1.00;;;;;;6217687;23;20244;-95
2023/07/25 11:46:32;;;;;;;2.97;1.30;;;26.60;1.00;;;;;;6218305;23;20592;-96
2023/07/25 11:49:00;;;;;;;3.47;1.20;;;26.30;1.00;;;;;;6217660;23;20227;-95
2023/07/25 11:51:27;;;;;;;4.78;1.10;;;25.90;1.00;;;;;;6216926;23;20267;-95
2023/07/25 11:53:55;;;;;;;3.28;1.30;;;25.60;1.00;;;;;;6217669;23;20616;-96
2023/07/25 11:56:22;;;;;;;2.55;1.30;;;25.40;1.00;;;;;;6217554;23;20169;-96
2023/07/25 11:58:50;;;;;;;1.92;1.30;;;25.20;1.00;;;;;;6217013;23;20169;-95
2023/07/25 12:01:19;;;;;;;3.63;1.30;;;24.90;1.00;;;;;;6217340;23;20634;-95
2023/07/25 12:03:48;;;;;;;6.65;1.25;;;24.70;1.00;;;;;;6215966;23;20169;-96
2023/07/25 12:06:16;;;;;;;2.65;1.05;;;24.70;1.00;;;;;;6217445;23;20428;-96
2023/07/25 12:08:44;;;;;;;3.65;1.50;;;24.80;1.00;;;;;;6216980;23;20188;-95
2023/07/25 12:11:13;;;;;;;3.58;1.40;;;24.80;1.00;;;;;;6216365;23;20243;-95
2023/07/25 12:13:45;;;;;;;1.88;1.10;;;24.70;1.00;;;;;;6217319;23;20502;-96
2023/07/25 12:16:26;;;;;;;2.35;1.40;;;24.50;1.00;;;;;;6216583;23;20215;-96
2023/07/25 12:18:56;;;;;;;2.53;1.48;;;24.30;1.00;;;;;;6217004;23;20157;-94
2023/07/25 12:21:28;;;;;;;3.40;1.30;;;24.30;1.00;;;;;;6216881;23;20169;-96
2023/07/25 12:23:57;;;;;;;5.00;1.35;;;24.20;1.00;;;;;;6216557;23;20154;-95
2023/07/25 12:26:25;;;;;;;1.40;1.30;;;24.10;1.00;;;;;;6217378;23;20240;-96
2023/07/25 12:28:53;;;;;;;2.53;1.50;;;24.00;1.00;;;;;;6217318;23;20599;-95
2023/07/25 12:31:22;;;;;;;1.40;1.20;;;24.10;1.00;;;;;;6216904;23;20271;-95
2023/07/25 12:33:52;;;;;;;2.85;1.30;;;24.20;1.00;;;;;;6216796;23;20634;-95
2023/07/25 12:36:20;;;;;;;4.13;1.20;;;24.30;1.00;;;;;;6216679;23;20607;-95
2023/07/25 12:38:47;;;;;;;3.15;1.20;;;24.50;1.00;;;;;;6217135;23;20650;-95
2023/07/25 12:41:14;;;;;;;3.03;1.20;;;24.90;1.00;;;;;;6216694;23;20244;-95
2023/07/25 12:43:42;;;;;;;2.25;1.20;;;25.30;1.00;;;;;;6217283;23;20503;-95
2023/07/25 12:46:10;;;;;;;6.00;1.88;;;25.50;1.00;;;;;;6216307;23;20189;-94
2023/07/25 12:48:37;;;;;;;2.25;1.30;;;25.40;1.00;;;;;;6216316;23;20177;-95
2023/07/25 12:51:06;;;;;;;1.75;1.05;;;25.50;1.00;;;;;;6216419;23;20192;-95
2023/07/25 12:53:33;;;;;;;3.90;1.10;;;25.80;1.00;;;;;;6216272;23;20176;-95
2023/07/25 12:56:00;;;;;;;1.30;0.95;;;26.00;1.00;;;;;;6215933;23;20176;-95
2023/07/25 12:58:28;;;;;;;1.52;1.30;;;25.90;1.00;;;;;;6215836;23;20240;-95
2023/07/25 13:00:55;;;;;;;3.35;1.27;;;25.80;1.00;;;;;;6216190;23;20223;-96
2023/07/25 13:03:24;;;;;;;3.03;1.35;;;25.70;1.00;;;;;;6216547;23;20333;-95
2023/07/25 13:05:51;;;;;;;2.22;1.20;;;25.60;1.00;;;;;;6216122;23;20169;-94
2023/07/25 13:08:20;;;;;;;1.67;1.30;;;25.30;1.00;;;;;;6216348;23;20173;-96
2023/07/25 13:10:48;;;;;;;4.00;2.05;;;25.00;1.00;;;;;;6215589;23;20199;-96
2023/07/25 13:13:15;;;;;;;1.98;1.30;;;24.70;1.00;;;;;;6216307;23;20520;-95
2023/07/25 13:15:42;;;;;;;4.03;2.28;;;24.70;1.00;;;;;;6216233;23;20169;-95
2023/07/25 13:18:10;;;;;;;5.40;1.63;;;24.80;1.00;;;;;;6216482;23;20169;-96
2023/07/25 13:20:37;;;;;;;1.48;1.15;;;24.90;1.00;;;;;;6215814;23;20197;-96
2023/07/25 13:23:04;;;;;;;2.80;1.30;;;24.80;1.00;;;;;;6216049;23;20248;-96
2023/07/25 13:25:35;;;;;;;2.92;1.40;;;24.60;1.00;;;;;;6215892;23;20176;-96
2023/07/25 13:28:02;;;;;;;4.30;1.65;;;24.40;1.00;;;;;;6216828;23;20236;-94
2023/07/25 13:30:29;;;;;;;3.45;1.60;;;24.40;1.00;;;;;;6216295;23;20214;-94
2023/07/25 13:32:56;;;;;;;3.30;1.25;;;24.60;1.00;;;;;;6216192;23;20240;-94
2023/07/25 13:35:23;;;;;;;4.28;1.40;;;24.80;1.00;;;;;;6215859;23;20175;-92
2023/07/25 13:37:51;;;;;;;3.72;1.60;;;25.00;1.00;;;;;;6216036;23;20248;-95
2023/07/25 13:40:18;;;;;;;4.10;1.90;;;25.40;1.00;;;;;;6216144;23;20203;-93
2023/07/25 13:42:46;;;;;;;4.13;1.70;;;25.80;1.00;;;;;;6213923;23;20175;-93
2023/07/25 13:45:14;;;;;;;3.30;1.58;;;26.20;1.00;;;;;;6214535;23;20197;-93
2023/07/25 13:47:41;;;;;;;2.15;1.35;;;26.30;1.00;;;;;;6214120;23;20193;-93
2023/07/25 13:50:09;;;;;;;6.55;2.38;;;26.40;1.00;;;;;;6214507;23;20165;-93
2023/07/25 13:52:36;;;;;;;2.47;1.60;;;26.50;1.00;;;;;;6214580;23;20168;-93
2023/07/25 13:55:04;;;;;;;2.55;1.60;;;26.30;1.00;;;;;;6214223;23;20513;-94
2023/07/25 13:57:31;;;;;;;5.32;1.90;;;26.00;1.00;;;;;;6213974;23;20535;-95
2023/07/25 13:59:59;;;;;;;4.65;2.33;;;25.80;1.00;;;;;;6214177;23;20244;-95
2023/07/25 14:02:26;;;;;;;2.65;1.40;;;25.60;1.00;;;;;;6214131;23;20244;-94
2023/07/25 14:04:54;;;;;;;2.88;1.67;;;25.40;1.00;;;;;;6214818;23;20169;-95
2023/07/25 14:07:21;;;;;;;4.82;1.75;;;25.40;1.00;;;;;;6214602;23;20244;-94
2023/07/25 14:09:48;;;;;;;3.10;1.90;;;25.50;1.00;;;;;;6215276;23;20248;-94
2023/07/25 14:12:15;;;;;;;2.90;1.50;;;25.50;1.00;;;;;;6217896;23;20719;-95
2023/07/25 14:14:42;;;;;;;2.83;1.70;;;25.60;1.00;;;;;;6216239;23;20228;-94
2023/07/25 14:17:11;;;;;;;3.63;1.33;;;25.70;1.00;;;;;;6215573;23;20309;-94
2023/07/25 14:19:38;;;;;;;306.73;54.80;;;25.70;1.00;;;;;;6215780;23;20251;-94
2023/07/25 14:22:06;;;;;;;4.38;1.60;;;25.80;1.00;;;;;;6217279;23;20233;-96
2023/07/25 14:24:33;;;;;;;2.88;1.15;;;25.80;1.00;;;;;;6217573;23;20195;-94
2023/07/25 14:27:00;;;;;;;2.67;1.52;;;25.80;1.00;;;;;;6218360;23;20204;-94
2023/07/25 14:29:28;;;;;;;2.10;1.40;;;25.80;1.00;;;;;;6217609;23;20248;-95
2023/07/25 14:31:55;;;;;;;5.07;1.50;;;25.70;1.00;;;;;;6218753;23;20189;-95
2023/07/25 14:34:24;;;;;;;3.63;1.50;;;25.80;1.00;;;;;;6218344;23;20169;-95
2023/07/25 14:36:52;;;;;;;2.20;1.23;;;25.80;1.00;;;;;;6217521;23;20248;-95
2023/07/25 14:39:19;;;;;;;3.50;1.42;;;26.10;1.00;;;;;;6217875;23;20255;-95
2023/07/25 14:41:46;;;;;;;2.45;1.27;;;26.50;1.00;;;;;;6165383;23;1218590;-94
2023/07/25 14:44:14;;;;;;;1.77;1.15;;;26.60;1.00;;;;;;6217854;23;20248;-93
2023/07/25 14:46:41;;;;;;;4.05;1.40;;;26.60;1.00;;;;;;6218172;23;20247;-95
2023/07/25 14:49:08;;;;;;;1.48;1.27;;;26.30;1.00;;;;;;6218972;23;20562;-94
2023/07/25 14:51:36;;;;;;;3.72;1.33;;;25.90;1.00;;;;;;6219136;23;20192;-94
2023/07/25 14:54:04;;;;;;;2.08;1.10;;;25.60;1.00;;;;;;6218475;23;20252;-95
2023/07/25 14:56:31;;;;;;;2.30;1.27;;;25.40;1.00;;;;;;6218892;23;20200;-95
2023/07/25 14:58:58;;;;;;;1.92;1.10;;;25.10;1.00;;;;;;6217850;23;20169;-96
2023/07/25 15:01:25;;;;;;;2.92;1.17;;;24.90;1.00;;;;;;6218267;23;20240;-95
2023/07/25 15:03:52;;;;;;;1.65;1.20;;;24.60;1.00;;;;;;6217750;23;20245;-95
2023/07/25 15:06:20;;;;;;;2.13;1.20;;;24.50;1.00;;;;;;6218653;23;20249;-95
2023/07/25 15:08:48;;;;;;;2.22;1.25;;;24.40;1.00;;;;;;6217476;23;20204;-95
2023/07/25 15:11:16;;;;;;;2.58;1.20;;;24.30;1.00;;;;;;6217763;23;20195;-95
2023/07/25 15:13:43;;;;;;;3.33;1.50;;;24.30;1.00;;;;;;6218188;23;20172;-95
2023/07/25 15:16:10;;;;;;;3.15;1.48;;;24.20;1.00;;;;;;6220915;23;20635;-96
2023/07/25 15:18:37;;;;;;;4.28;1.40;;;24.20;1.00;;;;;;6218627;23;20221;-95
2023/07/25 15:21:05;;;;;;;2.10;1.10;;;24.20;1.00;;;;;;6218514;23;20619;-95
2023/07/25 15:23:32;;;;;;;2.67;1.42;;;24.20;1.00;;;;;;6218055;23;20173;-95
2023/07/25 15:26:00;;;;;;;2.35;1.40;;;24.20;1.00;;;;;;6217167;23;20513;-95
2023/07/25 15:28:28;;;;;;;2.72;1.40;;;24.20;1.00;;;;;;6217821;23;20568;-96
2023/07/25 15:30:55;;;;;;;2.67;1.70;;;24.10;1.00;;;;;;6217537;23;20211;-95
2023/07/25 15:33:23;;;;;;;2.53;1.55;;;24.10;1.00;;;;;;6217678;23;20169;-95
2023/07/25 15:35:50;;;;;;;2.10;1.20;;;24.10;1.00;;;;;;6217328;23;20177;-95
2023/07/25 15:38:17;;;;;;;1.77;1.10;;;24.20;1.00;;;;;;6217368;23;20177;-96
2023/07/25 15:40:44;;;;;;;2.00;1.27;;;24.20;1.00;;;;;;6216796;23;20735;-95
2023/07/25 15:43:13;;;;;;;4.90;1.27;;;24.30;1.00;;;;;;6217007;23;20169;-94
2023/07/25 15:45:40;;;;;;;1.88;1.20;;;24.40;1.00;;;;;;6216739;23;20251;-94
2023/07/25 15:48:07;;;;;;;4.22;1.20;;;24.50;1.00;;;;;;6217335;23;20173;-95
2023/07/25 15:50:35;;;;;;;2.92;1.55;;;24.50;1.00;;;;;;6217306;23;20248;-95
2023/07/25 15:53:02;;;;;;;3.15;1.30;;;24.50;1.00;;;;;;6217923;23;20204;-93
2023/07/25 15:55:29;;;;;;;2.25;1.45;;;24.40;1.00;;;;;;6217482;23;20161;-94
2023/07/25 15:57:56;;;;;;;2.75;1.40;;;24.40;1.00;;;;;;6217529;23;20188;-94
2023/07/25 16:00:25;;;;;;;2.20;1.10;;;24.30;1.00;;;;;;6217563;23;20246;-95
2023/07/25 16:02:52;;;;;;;2.17;1.33;;;24.20;1.00;;;;;;6219032;23;20234;-95
2023/07/25 16:05:19;;;;;;;1.73;1.17;;;24.10;1.00;;;;;;6220163;23;20172;-96
2023/07/25 16:07:47;;;;;;;1.98;1.30;;;24.00;1.00;;;;;;6219226;23;20208;-94
2023/07/25 16:10:14;;;;;;;3.95;1.55;;;23.90;1.00;;;;;;6218690;23;20173;-93
2023/07/25 16:12:41;;;;;;;1.98;1.25;;;23.80;1.00;;;;;;6218507;23;20268;-93
2023/07/25 16:15:09;;;;;;;3.80;1.30;;;23.70;1.00;;;;;;6217983;23;20252;-90
2023/07/25 16:17:38;;;;;;;2.25;1.40;;;23.60;1.00;;;;;;6217372;23;20169;-92
2023/07/25 16:20:07;;;;;;;4.43;1.52;;;23.50;1.00;;;;;;6218035;23;20204;-92
2023/07/25 16:22:34;;;;;;;5.07;1.42;;;23.50;1.00;;;;;;6218258;23;20252;-93
2023/07/25 16:25:01;;;;;;;3.42;1.48;;;23.40;1.00;;;;;;6217175;23;20179;-92
2023/07/25 16:27:28;;;;;;;2.60;1.45;;;23.50;1.00;;;;;;6219191;23;20183;-93
2023/07/25 16:29:55;;;;;;;2.53;1.50;;;23.50;1.00;;;;;;6218235;23;20212;-93
2023/07/25 16:32:24;;;;;;;4.95;1.60;;;23.60;1.00;;;;;;6218772;23;20189;-93
2023/07/25 16:34:53;;;;;;;2.20;1.30;;;23.70;1.00;;;;;;6218262;23;20180;-93
2023/07/25 16:37:20;;;;;;;1.80;1.10;;;23.80;1.00;;;;;;6218731;23;20513;-92
2023/07/25 16:39:47;;;;;;;6.03;1.30;;;23.80;1.00;;;;;;6218151;23;20165;-92
2023/07/25 16:42:14;;;;;;;1.60;1.15;;;23.80;1.00;;;;;;6217717;23;20189;-91
2023/07/25 16:44:41;;;;;;;3.60;1.27;;;23.70;1.00;;;;;;6218368;23;20175;-92
2023/07/25 16:47:08;;;;;;;4.20;1.30;;;23.60;1.00;;;;;;6217668;23;20171;-92
2023/07/25 16:49:36;;;;;;;2.20;1.23;;;23.50;1.00;;;;;;6216924;23;20169;-93
2023/07/25 16:52:05;;;;;;;4.22;2.90;;;23.50;1.00;;;;;;6216628;23;20191;-92
2023/07/25 16:54:32;;;;;;;5.30;2.92;;;23.40;1.00;;;;;;6216088;23;20173;-92
2023/07/25 16:56:59;;;;;;;16.30;14.57;;;23.30;1.00;;;;;;6216980;23;20173;-92
2023/07/25 16:59:26;;;;;;;4.75;4.25;;;23.20;1.00;;;;;;6216161;23;20161;-93
2023/07/25 17:01:53;;;;;;;11.20;9.10;;;23.10;1.00;;;;;;6217172;23;20165;-92
2023/07/25 17:04:21;;;;;;;5.35;4.80;;;23.20;1.00;;;;;;6216590;23;20175;-92
2023/07/25 17:06:49;;;;;;;2.30;2.00;;;23.30;1.00;;;;;;6217113;23;20198;-92
2023/07/25 17:09:18;;;;;;;2.72;1.70;;;23.40;1.00;;;;;;6216574;23;20615;-91
2023/07/25 17:11:45;;;;;;;6.07;3.10;;;23.50;1.00;;;;;;6216634;23;20185;-92
2023/07/25 17:14:12;;;;;;;8.57;6.28;;;23.50;1.00;;;;;;6216230;23;20229;-91
2023/07/25 17:16:39;;;;;;;19.40;16.73;;;23.40;1.00;;;;;;6216440;23;20251;-94
2023/07/25 17:19:06;;;;;;;6.60;4.45;;;23.30;1.00;;;;;;6216684;23;20240;-92
2023/07/25 17:21:35;;;;;;;2.22;1.77;;;23.20;1.00;;;;;;6216925;23;20695;-92
2023/07/25 17:24:03;;;;;;;3.92;1.77;;;23.10;1.00;;;;;;6216806;23;20497;-93
2023/07/25 17:26:31;;;;;;;5.68;3.78;;;23.10;1.00;;;;;;6217200;23;20183;-93
2023/07/25 17:28:58;;;;;;;17.13;10.50;;;23.20;1.00;;;;;;6216384;23;20243;-93
2023/07/25 17:31:26;;;;;;;23.08;13.77;;;23.10;1.00;;;;;;6216759;23;20189;-93
2023/07/25 17:33:53;;;;;;;32.13;17.70;;;23.20;1.00;;;;;;6216501;23;20169;-92
2023/07/25 17:36:20;;;;;;;28.52;17.67;;;23.20;1.00;;;;;;6216616;23;20195;-94
2023/07/25 17:38:47;;;;;;;6.05;3.53;;;23.10;1.00;;;;;;6216928;23;20173;-93
2023/07/25 17:41:14;;;;;;;4.07;2.33;;;23.00;1.00;;;;;;6216081;23;20192;-92
2023/07/25 17:43:43;;;;;;;4.63;2.58;;;22.90;1.00;;;;;;6216746;23;20169;-93
2023/07/25 17:46:10;;;;;;;5.25;4.75;;;22.80;1.00;;;;;;6216983;23;20173;-93
2023/07/25 17:48:37;;;;;;;3.25;2.05;;;22.80;1.00;;;;;;6216897;23;20220;-93
2023/07/25 17:51:04;;;;;;;2.60;1.98;;;22.70;1.00;;;;;;6216828;23;20177;-92
2023/07/25 17:53:31;;;;;;;2.72;1.65;;;22.50;1.00;;;;;;6216595;23;20175;-92
2023/07/25 17:55:59;;;;;;;1.75;1.45;;;22.40;1.00;;;;;;6216260;23;20169;-92
2023/07/25 17:58:26;;;;;;;5.35;3.95;;;22.30;1.00;;;;;;6218065;23;20175;-92
2023/07/25 18:00:54;;;;;;;3.88;1.90;;;22.20;1.00;;;;;;6220857;23;20219;-93
2023/07/25 18:03:22;;;;;;;4.18;2.05;;;22.10;1.00;;;;;;6221326;23;20694;-92
2023/07/25 18:05:49;;;;;;;2.50;1.70;;;22.00;1.00;;;;;;6218634;23;20195;-92
2023/07/25 18:08:16;;;;;;;4.75;1.83;;;21.90;1.00;;;;;;6218210;23;20264;-93
2023/07/25 18:10:43;;;;;;;5.35;1.70;;;21.90;1.00;;;;;;6218219;23;20172;-92
2023/07/25 18:13:11;;;;;;;2.97;1.60;;;21.80;1.00;;;;;;6218357;23;20199;-92
2023/07/25 18:15:38;;;;;;;3.55;1.70;;;21.80;1.00;;;;;;6218419;23;20610;-93
2023/07/25 18:18:07;;;;;;;2.03;1.52;;;21.70;1.00;;;;;;6218482;23;20674;-92
2023/07/25 18:20:34;;;;;;;6.43;1.83;;;21.70;1.00;;;;;;6219152;23;20245;-95
2023/07/25 18:23:01;;;;;;;3.42;1.85;;;21.70;1.00;;;;;;6220649;23;20247;-94
2023/07/25 18:25:28;;;;;;;5.55;1.70;;;21.60;1.00;;;;;;6219552;23;20205;-96
2023/07/25 18:27:55;;;;;;;3.95;1.80;;;21.60;1.00;;;;;;6222235;23;20204;-93
2023/07/25 18:30:23;;;;;;;3.25;2.08;;;21.50;1.00;;;;;;6219991;23;20253;-94
2023/07/25 18:32:50;;;;;;;4.05;2.00;;;21.40;1.00;;;;;;6217550;23;20674;-95
2023/07/25 18:35:18;;;;;;;5.20;1.95;;;21.30;1.00;;;;;;6217790;23;20615;-95
2023/07/25 18:37:47;;;;;;;2.88;1.80;;;21.20;1.00;;;;;;6217835;23;20249;-94
2023/07/25 18:40:15;;;;;;;8.27;2.30;;;21.10;1.00;;;;;;6217960;23;20180;-94
2023/07/25 18:42:43;;;;;;;6.30;2.10;;;21.00;1.00;;;;;;6217669;23;20200;-95
2023/07/25 18:45:11;;;;;;;3.33;1.88;;;21.00;1.00;;;;;;6217960;23;20224;-94
2023/07/25 18:47:38;;;;;;;9.30;3.63;;;20.80;1.00;;;;;;6217990;23;20384;-95
2023/07/25 18:50:06;;;;;;;8.95;2.20;;;20.70;1.00;;;;;;6218286;23;20239;-94
2023/07/25 18:52:35;;;;;;;3.95;1.98;;;20.60;1.00;;;;;;6218189;23;20192;-94
2023/07/25 18:55:02;;;;;;;4.70;1.80;;;20.50;1.00;;;;;;6218169;23;20204;-95
2023/07/25 18:57:29;;;;;;;3.58;1.67;;;20.40;1.00;;;;;;6218179;23;20200;-93
2023/07/25 18:59:56;;;;;;;3.13;2.03;;;20.30;1.00;;;;;;6217646;23;20248;-95
2023/07/25 19:02:24;;;;;;;2.50;1.90;;;20.20;1.00;;;;;;6217914;23;20223;-95
2023/07/25 19:04:51;;;;;;;3.45;2.47;;;20.10;1.00;;;;;;6217789;23;20168;-94
2023/07/25 19:07:19;;;;;;;4.35;1.95;;;19.90;1.00;;;;;;6218035;23;20179;-96
2023/07/25 19:09:47;;;;;;;5.45;1.90;;;19.80;1.00;;;;;;6217622;23;20207;-95
2023/07/25 19:12:14;;;;;;;2.83;1.77;;;19.80;1.00;;;;;;6217916;23;20271;-94
2023/07/25 19:14:42;;;;;;;4.50;1.92;;;19.70;1.00;;;;;;6218778;23;20173;-96
2023/07/25 19:17:10;;;;;;;3.80;1.55;;;19.60;1.00;;;;;;6218887;23;20252;-94
2023/07/25 19:19:37;;;;;;;5.40;1.60;;;19.60;1.00;;;;;;6218567;23;20251;-96
2023/07/25 19:22:05;;;;;;;3.72;2.38;;;19.50;1.00;;;;;;6218911;23;20185;-94
2023/07/25 19:24:32;;;;;;;4.57;1.52;;;19.40;1.00;;;;;;6218602;23;20195;-95
2023/07/25 19:27:00;;;;;;;3.83;1.55;;;19.40;1.00;;;;;;6220011;23;20205;-94
2023/07/25 19:29:28;;;;;;;2.40;1.27;;;19.30;55.70;;;;;;6219046;23;20201;-94
2023/07/25 19:31:55;;;;;;;4.18;1.60;;;19.20;99.90;;;;;;6219341;23;20201;-94
2023/07/25 19:34:22;;;;;;;2.45;1.48;;;19.20;99.90;;;;;;6218932;23;20252;-94
2023/07/25 19:36:49;;;;;;;4.47;1.67;;;19.10;99.90;;;;;;6218449;23;20180;-95
2023/07/25 19:39:16;;;;;;;3.88;1.80;;;19.00;1.00;;;;;;6218198;23;20169;-95
2023/07/25 19:41:44;;;;;;;3.85;1.98;;;18.90;1.00;;;;;;6217827;23;20192;-95
2023/07/25 19:44:14;;;;;;;3.20;1.65;;;18.90;80.80;;;;;;6217182;23;20193;-94
2023/07/25 19:46:41;;;;;;;4.18;1.52;;;18.80;99.90;;;;;;6217353;23;20587;-94
2023/07/25 19:49:08;;;;;;;3.28;1.73;;;18.80;99.90;;;;;;6217424;23;20173;-94
2023/07/25 19:51:35;;;;;;;5.68;1.83;;;18.70;99.90;;;;;;6216644;23;20503;-93
2023/07/25 19:54:02;;;;;;;2.13;1.65;;;18.60;1.00;;;;;;6216805;23;20228;-93
2023/07/25 19:56:33;;;;;;;3.20;1.98;;;18.60;1.00;;;;;;6217016;23;20165;-94
2023/07/25 19:59:00;;;;;;;9.45;2.60;;;18.50;72.40;;;;;;6216980;23;20165;-94
2023/07/25 20:01:29;;;;;;;4.35;1.80;;;18.50;99.90;;;;;;6217088;23;20169;-94
2023/07/25 20:03:57;;;;;;;1658.65;815.17;;;18.40;99.90;;;;;;6217107;23;20204;-95
2023/07/25 20:06:24;;;;;;;4.45;1.80;;;18.30;1.00;;;;;;6217167;23;20195;-94
2023/07/25 20:08:51;;;;;;;4.20;1.73;;;18.20;1.00;;;;;;6217133;23;20636;-94
2023/07/25 20:11:18;;;;;;;4.45;2.05;;;18.20;1.00;;;;;;6217071;23;20231;-93
2023/07/25 20:13:46;;;;;;;3.25;2.00;;;18.10;1.00;;;;;;6217212;23;20264;-94
2023/07/25 20:16:13;;;;;;;5.05;1.98;;;18.10;99.90;;;;;;6216349;23;20183;-94
2023/07/25 20:18:41;;;;;;;2.72;1.60;;;18.10;99.90;;;;;;6217675;23;20189;-93
2023/07/25 20:21:11;;;;;;;7.18;2.60;;;18.10;99.90;;;;;;6217447;23;20629;-93
2023/07/25 20:23:38;;;;;;;3.67;2.13;;;18.20;99.90;;;;;;6217013;23;20212;-95
2023/07/25 20:26:06;;;;;;;2.45;1.95;;;18.20;99.90;;;;;;6216707;23;20251;-94
2023/07/25 20:28:33;;;;;;;2.53;1.85;;;18.20;99.90;;;;;;6216853;23;20567;-93
2023/07/25 20:31:00;;;;;;;2.83;1.70;;;18.20;99.90;;;;;;6217282;23;20534;-94
2023/07/25 20:33:27;;;;;;;4.85;1.80;;;18.20;99.90;;;;;;6216869;23;20521;-93
2023/07/25 20:35:56;;;;;;;3.42;1.95;;;18.10;1.00;;;;;;6217077;23;20554;-94
2023/07/25 20:38:23;;;;;;;7.18;2.22;;;18.10;1.00;;;;;;6217020;23;20171;-95
2023/07/25 20:40:50;;;;;;;4.35;2.00;;;18.10;1.00;;;;;;6216374;23;20193;-94
2023/07/25 20:43:17;;;;;;;4.93;2.10;;;18.10;1.00;;;;;;6216508;23;20161;-95
2023/07/25 20:45:45;;;;;;;4.13;1.90;;;18.00;1.00;;;;;;6216710;23;20179;-95
2023/07/25 20:48:12;;;;;;;4.82;2.05;;;18.00;1.00;;;;;;6217026;23;20175;-94
2023/07/25 20:50:39;;;;;;;4.18;2.00;;;18.00;1.00;;;;;;6216789;23;20173;-94
2023/07/25 20:53:07;;;;;;;5.55;2.63;;;18.00;1.00;;;;;;6216417;23;20189;-93
2023/07/25 20:55:35;;;;;;;3.45;2.38;;;17.90;1.00;;;;;;6217345;23;20169;-94
2023/07/25 20:58:02;;;;;;;3.53;2.35;;;17.80;1.00;;;;;;6217180;23;20169;-93
2023/07/25 21:00:29;;;;;;;5.57;2.45;;;17.70;1.00;;;;;;6216983;23;20204;-95
2023/07/25 21:02:56;;;;;;;4.95;2.30;;;17.60;1.00;;;;;;6216877;23;20187;-93
2023/07/25 21:05:23;;;;;;;4.32;2.30;;;17.60;88.20;;;;;;6216832;23;20180;-94
2023/07/25 21:07:50;;;;;;;4.85;2.70;;;17.60;80.70;;;;;;6216762;23;20204;-92
2023/07/25 21:10:19;;;;;;;4.72;2.80;;;17.50;99.90;;;;;;6216175;23;20718;-93
2023/07/25 21:12:46;;;;;;;4.20;2.40;;;17.50;99.90;;;;;;6217314;23;20248;-95
2023/07/25 21:15:13;;;;;;;6.72;2.30;;;17.50;99.90;;;;;;6216463;23;20202;-94
2023/07/25 21:17:41;;;;;;;3.55;2.00;;;17.40;99.90;;;;;;6217309;23;20170;-93